sensor_id;sensor_type;location;lat;lon;timestamp;pressure;altitude;pressure_sealevel;temperature;humidity
75208;BME280;63795;55.684;37.864;2022-10-29T00:03:11;99909.94;;;8.89;87.16
75208;BME280;63795;55.684;37.864;2022-10-29T00:08:12;99910.75;;;8.89;86.94
75208;BME280;63795;55.684;37.864;2022-10-29T00:13:12;99907.94;;;8.89;87.18
75208;BME280;63795;55.684;37.864;2022-10-29T00:18:13;99910.34;;;8.91;87.25
75208;BME280;63795;55.684;37.864;2022-10-29T00:23:13;99903.88;;;8.87;87.21
75208;BME280;63795;55.684;37.864;2022-10-29T00:28:14;99899.88;;;8.91;87.30
75208;BME280;63795;55.684;37.864;2022-10-29T00:33:14;99900.63;;;8.88;87.44
75208;BME280;63795;55.684;37.864;2022-10-29T00:38:17;99902.28;;;8.93;87.46
75208;BME280;63795;55.684;37.864;2022-10-29T00:43:20;99890.97;;;8.93;87.50
75208;BME280;63795;55.684;37.864;2022-10-29T00:48:21;99895.03;;;8.95;87.75
75208;BME280;63795;55.684;37.864;2022-10-29T00:53:28;99869.94;;;8.87;87.46
75208;BME280;63795;55.684;37.864;2022-10-29T00:58:30;99874.03;;;8.93;87.58
75208;BME280;63795;55.684;37.864;2022-10-29T01:03:31;99881.25;;;8.90;87.79
75208;BME280;63795;55.684;37.864;2022-10-29T01:08:31;99878.84;;;8.92;87.54
75208;BME280;63795;55.684;37.864;2022-10-29T01:24:45;99856.63;;;8.87;87.69
75208;BME280;63795;55.684;37.864;2022-10-29T01:29:43;99849.31;;;8.79;87.83
75208;BME280;63795;55.684;37.864;2022-10-29T01:35:16;99850.91;;;8.73;87.93
75208;BME280;63795;55.684;37.864;2022-10-29T01:40:33;99835.88;;;8.62;87.89
75208;BME280;63795;55.684;37.864;2022-10-29T01:45:42;99837.47;;;8.56;87.95
75208;BME280;63795;55.684;37.864;2022-10-29T01:50:48;99826.94;;;8.49;87.92
75208;BME280;63795;55.684;37.864;2022-10-29T01:55:50;99837.81;;;8.47;88.12
75208;BME280;63795;55.684;37.864;2022-10-29T02:06:18;99810.78;;;8.50;88.09
75208;BME280;63795;55.684;37.864;2022-10-29T02:11:48;99815.66;;;8.53;87.95
75208;BME280;63795;55.684;37.864;2022-10-29T02:16:52;99810.00;;;8.49;87.60
75208;BME280;63795;55.684;37.864;2022-10-29T02:21:54;99798.69;;;8.49;87.72
75208;BME280;63795;55.684;37.864;2022-10-29T02:26:54;99795.81;;;8.46;87.55
75208;BME280;63795;55.684;37.864;2022-10-29T02:31:55;99784.53;;;8.46;87.38
75208;BME280;63795;55.684;37.864;2022-10-29T02:36:55;99778.88;;;8.46;87.41
75208;BME280;63795;55.684;37.864;2022-10-29T02:41:56;99784.94;;;8.48;87.25
75208;BME280;63795;55.684;37.864;2022-10-29T02:46:56;99769.56;;;8.38;87.10
75208;BME280;63795;55.684;37.864;2022-10-29T02:51:57;99779.69;;;8.46;87.05
75208;BME280;63795;55.684;37.864;2022-10-29T02:56:57;99780.88;;;8.42;87.57
75208;BME280;63795;55.684;37.864;2022-10-29T03:01:58;99768.78;;;8.41;87.13
75208;BME280;63795;55.684;37.864;2022-10-29T03:07:00;99763.97;;;8.45;87.18
75208;BME280;63795;55.684;37.864;2022-10-29T03:12:01;99751.03;;;8.48;86.99
75208;BME280;63795;55.684;37.864;2022-10-29T03:17:01;99748.22;;;8.48;86.98
75208;BME280;63795;55.684;37.864;2022-10-29T03:22:02;99746.59;;;8.47;86.98
75208;BME280;63795;55.684;37.864;2022-10-29T03:27:02;99742.16;;;8.46;86.86
75208;BME280;63795;55.684;37.864;2022-10-29T03:32:03;99740.53;;;8.45;87.18
75208;BME280;63795;55.684;37.864;2022-10-29T03:37:04;99730.03;;;8.42;86.98
75208;BME280;63795;55.684;37.864;2022-10-29T03:42:04;99726.00;;;8.43;87.22
75208;BME280;63795;55.684;37.864;2022-10-29T03:47:06;99724.44;;;8.52;86.86
75208;BME280;63795;55.684;37.864;2022-10-29T03:52:08;99722.06;;;8.62;86.85
75208;BME280;63795;55.684;37.864;2022-10-29T03:57:08;99724.09;;;8.68;86.71
75208;BME280;63795;55.684;37.864;2022-10-29T04:02:09;99715.63;;;8.68;86.75
75208;BME280;63795;55.684;37.864;2022-10-29T04:07:12;99708.38;;;8.71;86.62
75208;BME280;63795;55.684;37.864;2022-10-29T04:12:12;99708.78;;;8.76;86.61
75208;BME280;63795;55.684;37.864;2022-10-29T04:17:13;99700.31;;;8.76;86.46
75208;BME280;63795;55.684;37.864;2022-10-29T04:22:13;99686.16;;;8.73;86.51
75208;BME280;63795;55.684;37.864;2022-10-29T04:27:14;99677.28;;;8.67;86.35
75208;BME280;63795;55.684;37.864;2022-10-29T04:32:14;99676.88;;;8.72;86.76
75208;BME280;63795;55.684;37.864;2022-10-29T04:37:15;99670.84;;;8.77;86.61
75208;BME280;63795;55.684;37.864;2022-10-29T04:42:15;99660.38;;;8.81;86.37
75208;BME280;63795;55.684;37.864;2022-10-29T04:47:16;99653.50;;;8.82;86.13
75208;BME280;63795;55.684;37.864;2022-10-29T04:52:16;99648.25;;;8.84;86.43
75208;BME280;63795;55.684;37.864;2022-10-29T04:57:17;99649.09;;;8.92;86.14
75208;BME280;63795;55.684;37.864;2022-10-29T05:02:17;99628.06;;;8.96;86.04
75208;BME280;63795;55.684;37.864;2022-10-29T05:07:18;99627.69;;;9.01;85.65
75208;BME280;63795;55.684;37.864;2022-10-29T05:12:18;99625.28;;;9.03;85.17
75208;BME280;63795;55.684;37.864;2022-10-29T05:17:19;99618.78;;;9.06;85.11
75208;BME280;63795;55.684;37.864;2022-10-29T05:22:19;99628.50;;;9.12;84.89
75208;BME280;63795;55.684;37.864;2022-10-29T05:27:20;99624.84;;;9.12;84.62
75208;BME280;63795;55.684;37.864;2022-10-29T05:32:20;99626.47;;;9.20;84.54
75208;BME280;63795;55.684;37.864;2022-10-29T05:37:21;99630.53;;;9.29;84.33
75208;BME280;63795;55.684;37.864;2022-10-29T05:42:24;99613.16;;;9.27;84.33
75208;BME280;63795;55.684;37.864;2022-10-29T05:47:25;99607.50;;;9.34;84.12
75208;BME280;63795;55.684;37.864;2022-10-29T05:52:25;99609.91;;;9.43;83.96
75208;BME280;63795;55.684;37.864;2022-10-29T05:57:26;99594.56;;;9.48;83.65
75208;BME280;63795;55.684;37.864;2022-10-29T06:02:27;99598.59;;;9.54;83.53
75208;BME280;63795;55.684;37.864;2022-10-29T06:07:27;99592.09;;;9.57;83.28
75208;BME280;63795;55.684;37.864;2022-10-29T06:12:31;99578.38;;;9.59;82.99
75208;BME280;63795;55.684;37.864;2022-10-29T06:17:32;99585.66;;;9.60;82.73
75208;BME280;63795;55.684;37.864;2022-10-29T06:22:32;99580.00;;;9.60;82.41
75208;BME280;63795;55.684;37.864;2022-10-29T06:27:33;99572.69;;;9.62;82.51
75208;BME280;63795;55.684;37.864;2022-10-29T06:32:33;99565.81;;;9.67;82.09
75208;BME280;63795;55.684;37.864;2022-10-29T06:37:36;99564.63;;;9.68;82.18
75208;BME280;63795;55.684;37.864;2022-10-29T06:42:37;99557.75;;;9.65;82.03
75208;BME280;63795;55.684;37.864;2022-10-29T06:47:41;99543.97;;;9.71;81.59
75208;BME280;63795;55.684;37.864;2022-10-29T06:52:42;99547.19;;;9.83;81.16
75208;BME280;63795;55.684;37.864;2022-10-29T06:57:43;99535.47;;;9.78;80.99
75208;BME280;63795;55.684;37.864;2022-10-29T07:02:43;99531.41;;;9.86;80.93
75208;BME280;63795;55.684;37.864;2022-10-29T07:07:44;99520.06;;;9.86;80.74
75208;BME280;63795;55.684;37.864;2022-10-29T07:12:44;99525.72;;;9.82;80.84
75208;BME280;63795;55.684;37.864;2022-10-29T07:17:58;99519.28;;;9.82;81.02
75208;BME280;63795;55.684;37.864;2022-10-29T07:22:59;99505.13;;;9.78;80.98
75208;BME280;63795;55.684;37.864;2022-10-29T07:28:05;99516.84;;;9.77;81.06
75208;BME280;63795;55.684;37.864;2022-10-29T07:33:06;99502.31;;;9.75;81.15
75208;BME280;63795;55.684;37.864;2022-10-29T07:38:09;99497.88;;;9.74;81.24
75208;BME280;63795;55.684;37.864;2022-10-29T07:43:09;99499.91;;;9.70;81.24
75208;BME280;63795;55.684;37.864;2022-10-29T07:48:10;99484.97;;;9.66;81.33
75208;BME280;63795;55.684;37.864;2022-10-29T07:53:10;99469.16;;;9.68;81.03
75208;BME280;63795;55.684;37.864;2022-10-29T07:58:11;99466.72;;;9.77;80.73
75208;BME280;63795;55.684;37.864;2022-10-29T08:03:12;99456.16;;;9.85;80.85
75208;BME280;63795;55.684;37.864;2022-10-29T08:08:13;99454.50;;;9.98;80.37
75208;BME280;63795;55.684;37.864;2022-10-29T08:13:14;99430.97;;;10.08;79.67
75208;BME280;63795;55.684;37.864;2022-10-29T08:18:16;99439.91;;;10.10;79.26
75208;BME280;63795;55.684;37.864;2022-10-29T08:23:17;99427.78;;;9.99;79.39
75208;BME280;63795;55.684;37.864;2022-10-29T08:28:17;99414.53;;;9.82;80.06
75208;BME280;63795;55.684;37.864;2022-10-29T08:33:18;99415.97;;;9.31;81.73
75208;BME280;63795;55.684;37.864;2022-10-29T08:38:21;99420.91;;;8.99;84.60
75208;BME280;63795;55.684;37.864;2022-10-29T08:44:01;99399.16;;;8.75;86.45
75208;BME280;63795;55.684;37.864;2022-10-29T08:49:05;99392.69;;;8.71;86.35
75208;BME280;63795;55.684;37.864;2022-10-29T08:54:19;99376.94;;;8.67;86.96
75208;BME280;63795;55.684;37.864;2022-10-29T08:59:24;99395.06;;;8.90;87.47
75208;BME280;63795;55.684;37.864;2022-10-29T09:04:35;99361.59;;;8.85;87.32
75208;BME280;63795;55.684;37.864;2022-10-29T09:09:49;99378.06;;;9.04;86.98
75208;BME280;63795;55.684;37.864;2022-10-29T09:15:02;99367.59;;;9.01;86.94
75208;BME280;63795;55.684;37.864;2022-10-29T09:30:54;99334.81;;;9.14;86.88
75208;BME280;63795;55.684;37.864;2022-10-29T09:35:58;99293.72;;;8.96;86.95
75208;BME280;63795;55.684;37.864;2022-10-29T09:41:00;99326.31;;;9.18;86.89
75208;BME280;63795;55.684;37.864;2022-10-29T09:56:18;99281.91;;;9.15;86.49
75208;BME280;63795;55.684;37.864;2022-10-29T10:01:18;99285.56;;;9.08;86.25
75208;BME280;63795;55.684;37.864;2022-10-29T10:06:19;99268.19;;;9.06;86.28
75208;BME280;63795;55.684;37.864;2022-10-29T10:11:20;99274.22;;;9.15;86.72
75208;BME280;63795;55.684;37.864;2022-10-29T10:16:26;99245.59;;;9.06;86.51
75208;BME280;63795;55.684;37.864;2022-10-29T10:21:29;99265.69;;;9.22;86.42
75208;BME280;63795;55.684;37.864;2022-10-29T10:26:39;99255.16;;;9.26;86.25
75208;BME280;63795;55.684;37.864;2022-10-29T10:31:48;99230.16;;;9.21;85.47
75208;BME280;63795;55.684;37.864;2022-10-29T10:41:54;99236.53;;;9.39;84.80
75208;BME280;63795;55.684;37.864;2022-10-29T10:46:58;99225.97;;;9.40;84.82
75208;BME280;63795;55.684;37.864;2022-10-29T10:52:11;99215.47;;;9.40;84.58
75208;BME280;63795;55.684;37.864;2022-10-29T11:07:24;99196.00;;;9.53;83.77
75208;BME280;63795;55.684;37.864;2022-10-29T11:12:49;99190.31;;;9.57;83.88
75208;BME280;63795;55.684;37.864;2022-10-29T11:17:55;99188.72;;;9.56;83.56
75208;BME280;63795;55.684;37.864;2022-10-29T11:23:19;99183.41;;;9.61;83.61
75208;BME280;63795;55.684;37.864;2022-10-29T11:43:49;99146.13;;;9.70;82.52
75208;BME280;63795;55.684;37.864;2022-10-29T12:10:08;99122.59;;;9.80;82.29
75208;BME280;63795;55.684;37.864;2022-10-29T12:41:08;99079.22;;;9.90;81.57
75208;BME280;63795;55.684;37.864;2022-10-29T12:56:41;99030.50;;;9.72;81.10
75208;BME280;63795;55.684;37.864;2022-10-29T13:01:43;99052.88;;;9.93;81.30
75208;BME280;63795;55.684;37.864;2022-10-29T13:06:46;99051.28;;;9.92;81.16
75208;BME280;63795;55.684;37.864;2022-10-29T13:11:57;99042.78;;;9.92;81.50
75208;BME280;63795;55.684;37.864;2022-10-29T13:16:59;99037.13;;;9.92;81.29
75208;BME280;63795;55.684;37.864;2022-10-29T13:27:31;99016.13;;;9.89;81.10
75208;BME280;63795;55.684;37.864;2022-10-29T13:32:33;99003.16;;;9.92;81.45
75208;BME280;63795;55.684;37.864;2022-10-29T13:37:37;99010.47;;;9.89;81.40
75208;BME280;63795;55.684;37.864;2022-10-29T13:42:38;99005.22;;;9.88;81.65
75208;BME280;63795;55.684;37.864;2022-10-29T13:47:39;98997.94;;;9.87;81.53
75208;BME280;63795;55.684;37.864;2022-10-29T13:52:40;98983.13;;;9.76;82.04
75208;BME280;63795;55.684;37.864;2022-10-29T13:57:57;98990.34;;;9.80;82.07
75208;BME280;63795;55.684;37.864;2022-10-29T14:03:28;98977.88;;;9.74;82.28
75208;BME280;63795;55.684;37.864;2022-10-29T14:08:40;98979.88;;;9.77;82.22
75208;BME280;63795;55.684;37.864;2022-10-29T14:13:47;98967.38;;;9.75;81.97
75208;BME280;63795;55.684;37.864;2022-10-29T14:18:49;98963.78;;;9.71;82.37
75208;BME280;63795;55.684;37.864;2022-10-29T14:29:12;98952.41;;;9.74;82.44
75208;BME280;63795;55.684;37.864;2022-10-29T14:34:25;98938.75;;;9.69;82.30
75208;BME280;63795;55.684;37.864;2022-10-29T14:39:42;98911.81;;;9.58;82.69
75208;BME280;63795;55.684;37.864;2022-10-29T14:44:47;98894.09;;;9.50;82.38
75208;BME280;63795;55.684;37.864;2022-10-29T14:49:51;98916.09;;;9.69;82.62
75208;BME280;63795;55.684;37.864;2022-10-29T14:54:53;98894.41;;;9.59;82.79
75208;BME280;63795;55.684;37.864;2022-10-29T15:00:01;98900.72;;;9.70;82.70
75208;BME280;63795;55.684;37.864;2022-10-29T15:10:23;98890.16;;;9.74;82.84
75208;BME280;63795;55.684;37.864;2022-10-29T15:15:28;98874.47;;;9.70;82.71
75208;BME280;63795;55.684;37.864;2022-10-29T15:25:39;98847.44;;;9.65;83.00
75208;BME280;63795;55.684;37.864;2022-10-29T15:30:39;98857.88;;;9.72;82.95
75208;BME280;63795;55.684;37.864;2022-10-29T15:35:49;98856.19;;;9.74;82.91
75208;BME280;63795;55.684;37.864;2022-10-29T15:46:11;98835.25;;;9.68;82.86
75208;BME280;63795;55.684;37.864;2022-10-29T15:51:24;98829.56;;;9.72;82.94
75208;BME280;63795;55.684;37.864;2022-10-29T15:56:25;98823.84;;;9.75;82.68
75208;BME280;63795;55.684;37.864;2022-10-29T16:01:25;98812.97;;;9.74;82.94
75208;BME280;63795;55.684;37.864;2022-10-29T16:06:26;98808.06;;;9.74;82.72
75208;BME280;63795;55.684;37.864;2022-10-29T16:11:27;98795.53;;;9.75;83.00
75208;BME280;63795;55.684;37.864;2022-10-29T16:16:29;98799.19;;;9.76;82.88
75208;BME280;63795;55.684;37.864;2022-10-29T16:21:29;98786.63;;;9.77;82.58
75208;BME280;63795;55.684;37.864;2022-10-29T16:26:30;98770.50;;;9.74;82.62
75208;BME280;63795;55.684;37.864;2022-10-29T16:31:31;98778.44;;;9.82;82.69
75208;BME280;63795;55.684;37.864;2022-10-29T16:36:31;98768.28;;;9.85;82.50
75208;BME280;63795;55.684;37.864;2022-10-29T16:41:32;98773.16;;;9.84;82.52
75208;BME280;63795;55.684;37.864;2022-10-29T16:46:34;98766.28;;;9.85;82.65
75208;BME280;63795;55.684;37.864;2022-10-29T16:51:34;98743.69;;;9.82;82.44
75208;BME280;63795;55.684;37.864;2022-10-29T16:56:35;98742.09;;;9.81;82.31
75208;BME280;63795;55.684;37.864;2022-10-29T17:01:35;98734.84;;;9.80;82.65
75208;BME280;63795;55.684;37.864;2022-10-29T17:06:36;98718.25;;;9.78;82.96
75208;BME280;63795;55.684;37.864;2022-10-29T17:11:36;98705.66;;;9.83;82.97
75208;BME280;63795;55.684;37.864;2022-10-29T17:16:37;98691.50;;;9.83;82.92
75208;BME280;63795;55.684;37.864;2022-10-29T17:21:38;98693.59;;;9.79;82.91
75208;BME280;63795;55.684;37.864;2022-10-29T17:26:38;98679.81;;;9.81;82.96
75208;BME280;63795;55.684;37.864;2022-10-29T17:31:39;98668.50;;;9.81;83.24
75208;BME280;63795;55.684;37.864;2022-10-29T17:36:40;98669.38;;;9.78;83.53
75208;BME280;63795;55.684;37.864;2022-10-29T17:41:42;98656.44;;;9.77;83.46
75208;BME280;63795;55.684;37.864;2022-10-29T17:46:43;98649.56;;;9.78;83.60
75208;BME280;63795;55.684;37.864;2022-10-29T17:51:43;98615.84;;;9.64;83.60
75208;BME280;63795;55.684;37.864;2022-10-29T17:56:44;98632.13;;;9.79;83.67
75208;BME280;63795;55.684;37.864;2022-10-29T18:01:45;98606.03;;;9.68;83.96
75208;BME280;63795;55.684;37.864;2022-10-29T18:06:45;98603.91;;;9.76;83.92
75208;BME280;63795;55.684;37.864;2022-10-29T18:11:47;98595.09;;;9.70;84.13
75208;BME280;63795;55.684;37.864;2022-10-29T18:16:49;98593.81;;;9.75;84.29
75208;BME280;63795;55.684;37.864;2022-10-29T18:21:49;98582.94;;;9.73;84.52
75208;BME280;63795;55.684;37.864;2022-10-29T18:26:50;98568.47;;;9.68;84.47
75208;BME280;63795;55.684;37.864;2022-10-29T18:31:56;98560.41;;;9.66;84.87
75208;BME280;63795;55.684;37.864;2022-10-29T18:36:56;98555.19;;;9.65;85.02
75208;BME280;63795;55.684;37.864;2022-10-29T18:41:57;98537.91;;;9.59;84.87
75208;BME280;63795;55.684;37.864;2022-10-29T18:46:58;98547.44;;;9.69;85.22
75208;BME280;63795;55.684;37.864;2022-10-29T18:51:59;98537.75;;;9.66;85.31
75208;BME280;63795;55.684;37.864;2022-10-29T18:56:59;98534.16;;;9.66;85.50
75208;BME280;63795;55.684;37.864;2022-10-29T19:02:00;98525.69;;;9.66;85.27
75208;BME280;63795;55.684;37.864;2022-10-29T19:07:01;98503.03;;;9.66;85.44
75208;BME280;63795;55.684;37.864;2022-10-29T19:12:01;98497.00;;;9.64;85.84
75208;BME280;63795;55.684;37.864;2022-10-29T19:17:02;98497.44;;;9.62;85.75
75208;BME280;63795;55.684;37.864;2022-10-29T19:22:02;98504.63;;;9.67;85.98
75208;BME280;63795;55.684;37.864;2022-10-29T19:27:03;98499.69;;;9.71;85.86
75208;BME280;63795;55.684;37.864;2022-10-29T19:32:04;98498.88;;;9.70;86.14
75208;BME280;63795;55.684;37.864;2022-10-29T19:37:04;98494.91;;;9.68;86.15
75208;BME280;63795;55.684;37.864;2022-10-29T19:42:05;98491.72;;;9.66;86.20
75208;BME280;63795;55.684;37.864;2022-10-29T19:47:07;98486.06;;;9.66;86.31
75208;BME280;63795;55.684;37.864;2022-10-29T19:52:07;98475.09;;;9.68;86.47
75208;BME280;63795;55.684;37.864;2022-10-29T19:57:08;98469.81;;;9.70;86.50
75208;BME280;63795;55.684;37.864;2022-10-29T20:02:09;98461.75;;;9.68;86.40
75208;BME280;63795;55.684;37.864;2022-10-29T20:07:10;98452.88;;;9.66;86.50
75208;BME280;63795;55.684;37.864;2022-10-29T20:12:10;98434.53;;;9.55;86.98
75208;BME280;63795;55.684;37.864;2022-10-29T20:17:11;98425.03;;;9.45;87.76
75208;BME280;63795;55.684;37.864;2022-10-29T20:22:11;98399.44;;;9.32;87.81
75208;BME280;63795;55.684;37.864;2022-10-29T20:27:12;98393.69;;;9.36;88.56
75208;BME280;63795;55.684;37.864;2022-10-29T20:32:13;98378.53;;;9.26;88.28
75208;BME280;63795;55.684;37.864;2022-10-29T20:37:13;98363.91;;;9.31;88.86
75208;BME280;63795;55.684;37.864;2022-10-29T20:42:14;98351.06;;;9.27;88.71
75208;BME280;63795;55.684;37.864;2022-10-29T20:47:17;98351.00;;;9.30;88.88
75208;BME280;63795;55.684;37.864;2022-10-29T20:52:18;98342.50;;;9.30;88.68
75208;BME280;63795;55.684;37.864;2022-10-29T20:57:19;98328.72;;;9.32;88.81
75208;BME280;63795;55.684;37.864;2022-10-29T21:02:19;98316.25;;;9.30;89.10
75208;BME280;63795;55.684;37.864;2022-10-29T21:07:20;98309.38;;;9.31;89.25
75208;BME280;63795;55.684;37.864;2022-10-29T21:12:20;98297.97;;;9.34;89.24
75208;BME280;63795;55.684;37.864;2022-10-29T21:17:21;98281.47;;;9.33;89.00
75208;BME280;63795;55.684;37.864;2022-10-29T21:22:21;98276.63;;;9.33;89.13
75208;BME280;63795;55.684;37.864;2022-10-29T21:27:22;98263.25;;;9.34;89.25
75208;BME280;63795;55.684;37.864;2022-10-29T21:32:22;98251.16;;;9.33;89.24
75208;BME280;63795;55.684;37.864;2022-10-29T21:37:23;98253.00;;;9.40;89.27
75208;BME280;63795;55.684;37.864;2022-10-29T21:42:24;98244.97;;;9.38;89.44
75208;BME280;63795;55.684;37.864;2022-10-29T21:47:24;98248.06;;;9.44;89.27
75208;BME280;63795;55.684;37.864;2022-10-29T21:52:25;98213.50;;;9.36;89.05
75208;BME280;63795;55.684;37.864;2022-10-29T21:57:25;98216.53;;;9.46;88.94
75208;BME280;63795;55.684;37.864;2022-10-29T22:02:26;98198.16;;;9.37;89.03
75208;BME280;63795;55.684;37.864;2022-10-29T22:07:27;98192.41;;;9.41;89.18
75208;BME280;63795;55.684;37.864;2022-10-29T22:12:27;98199.56;;;9.46;89.39
75208;BME280;63795;55.684;37.864;2022-10-29T22:17:29;98195.59;;;9.43;89.21
75208;BME280;63795;55.684;37.864;2022-10-29T22:22:30;98189.56;;;9.41;89.38
75208;BME280;63795;55.684;37.864;2022-10-29T22:27:31;98159.88;;;9.33;89.39
75208;BME280;63795;55.684;37.864;2022-10-29T22:32:31;98167.41;;;9.39;89.79
75208;BME280;63795;55.684;37.864;2022-10-29T22:37:32;98164.03;;;9.44;89.80
75208;BME280;63795;55.684;37.864;2022-10-29T22:42:32;98161.66;;;9.43;90.05
75208;BME280;63795;55.684;37.864;2022-10-29T22:47:33;98149.53;;;9.42;89.90
75208;BME280;63795;55.684;37.864;2022-10-29T22:52:34;98139.13;;;9.39;90.23
75208;BME280;63795;55.684;37.864;2022-10-29T22:57:34;98131.41;;;9.40;89.94
75208;BME280;63795;55.684;37.864;2022-10-29T23:02:35;98128.31;;;9.51;90.00
75208;BME280;63795;55.684;37.864;2022-10-29T23:07:35;98122.56;;;9.54;90.27
75208;BME280;63795;55.684;37.864;2022-10-29T23:12:36;98117.25;;;9.56;90.18
75208;BME280;63795;55.684;37.864;2022-10-29T23:17:37;98095.09;;;9.55;90.28
75208;BME280;63795;55.684;37.864;2022-10-29T23:22:38;98095.00;;;9.58;90.13
75208;BME280;63795;55.684;37.864;2022-10-29T23:27:38;98098.16;;;9.60;90.25
75208;BME280;63795;55.684;37.864;2022-10-29T23:32:38;98069.63;;;9.55;90.38
75208;BME280;63795;55.684;37.864;2022-10-29T23:37:39;98084.91;;;9.73;90.19
75208;BME280;63795;55.684;37.864;2022-10-29T23:42:40;98076.66;;;9.79;90.20
75208;BME280;63795;55.684;37.864;2022-10-29T23:47:40;98071.25;;;9.84;90.08
75208;BME280;63795;55.684;37.864;2022-10-29T23:52:41;98078.22;;;9.96;89.69
75208;BME280;63795;55.684;37.864;2022-10-29T23:57:41;98055.13;;;9.97;89.35
